Time;durP1;ratioP1;P1;durP2;ratioP2;P2;SDS_P1;SDS_P2;PMS_P1;PMS_P2;Temp;Humidity;BMP_temperature;BMP_pressure;BME280_temperature;BME280_humidity;BME280_pressure;Samples;Min_cycle;Max_cycle;Signal;HPM_P1;HPM_P2
2022/10/27 00:00:18;;;;;;;;;4.00;4.00;;;;;18.45;66.54;101554.88;5059208;28;45429;-47
2022/10/27 00:02:44;;;;;;;;;4.25;3.00;;;;;18.44;66.69;101551.34;5059181;28;45413;-46
2022/10/27 00:05:09;;;;;;;;;4.25;2.00;;;;;18.31;66.66;101539.50;5059460;28;45641;-45
2022/10/27 00:07:36;;;;;;;;;3.00;2.00;;;;;18.41;66.73;101546.34;5059464;28;45316;-46
2022/10/27 00:10:02;;;;;;;;;2.00;2.00;;;;;18.40;66.55;101558.13;5058205;28;46290;-47
2022/10/27 00:12:29;;;;;;;;;3.50;3.00;;;;;18.42;66.39;101558.78;5058815;28;45277;-48
2022/10/27 00:14:54;;;;;;;;;2.50;2.00;;;;;18.42;66.47;101560.66;5059087;28;45406;-44
2022/10/27 00:17:20;;;;;;;;;3.75;2.75;;;;;18.38;66.53;101572.78;5059099;28;45303;-45
2022/10/27 00:19:45;;;;;;;;;2.00;2.00;;;;;18.30;66.58;101562.91;5058963;28;46058;-45
2022/10/27 00:22:10;;;;;;;;;4.00;2.00;;;;;18.38;66.47;101575.50;5058816;28;45440;-44
2022/10/27 00:24:36;;;;;;;;;4.00;2.00;;;;;18.35;66.63;101571.28;5058814;28;45369;-45
2022/10/27 00:27:01;;;;;;;;;3.00;1.00;;;;;18.33;66.62;101580.53;5059181;28;45326;-45
2022/10/27 00:29:26;;;;;;;;;3.25;2.00;;;;;18.38;66.45;101570.94;5058704;28;46176;-43
2022/10/27 00:31:52;;;;;;;;;3.00;2.00;;;;;18.38;66.51;101564.72;5058557;28;45322;-45
2022/10/27 00:34:17;;;;;;;;;3.00;3.00;;;;;18.35;66.30;101556.97;5058792;28;45492;-50
2022/10/27 00:36:42;;;;;;;;;3.25;2.00;;;;;18.39;66.43;101563.69;5057485;28;45441;-45
2022/10/27 00:39:08;;;;;;;;;4.25;3.00;;;;;18.37;66.51;101568.41;5058605;28;46084;-45
2022/10/27 00:41:38;;;;;;;;;2.75;2.00;;;;;18.37;66.52;101566.56;5058592;28;45469;-46
2022/10/27 00:44:35;;;;;;;;;5.00;3.00;;;;;18.32;66.73;101573.50;5058668;28;45358;-45
2022/10/27 00:47:16;;;;;;;;;5.00;3.00;;;;;18.30;66.87;101570.16;5058857;28;45540;-44
2022/10/27 00:49:47;;;;;;;;;4.75;4.75;;;;;18.24;66.88;101555.50;5058249;28;46265;-46
2022/10/27 00:52:29;;;;;;;;;4.00;4.00;;;;;18.26;67.48;101566.13;5058189;28;45400;-46
2022/10/27 00:54:59;;;;;;;;;7.00;3.75;;;;;18.23;67.19;101564.63;5058423;28;45438;-46
2022/10/27 00:57:26;;;;;;;;;6.25;4.00;;;;;18.17;67.37;101565.34;5058710;28;45426;-43
2022/10/27 00:59:52;;;;;;;;;4.75;4.50;;;;;18.11;67.54;101564.16;5058140;28;46123;-45
2022/10/27 01:02:17;;;;;;;;;5.00;5.00;;;;;18.12;67.67;101557.78;5058015;28;45535;-45
2022/10/27 01:05:07;;;;;;;;;7.25;5.00;;;;;18.02;67.20;101538.31;5058551;28;45228;-44
2022/10/27 01:07:33;;;;;;;;;6.00;4.75;;;;;18.05;67.45;101553.28;5057975;28;45339;-44
2022/10/27 01:09:58;;;;;;;;;4.00;4.00;;;;;17.98;67.94;101553.13;5057941;28;45395;-45
2022/10/27 01:12:24;;;;;;;;;4.00;4.00;;;;;17.94;67.86;101551.81;5057963;28;45386;-45
2022/10/27 01:14:50;;;;;;;;;4.00;4.00;;;;;17.99;67.78;101545.88;5058219;28;45295;-44
2022/10/27 01:17:57;;;;;;;;;7.25;5.00;;;;;17.99;67.52;101546.72;5057953;28;45510;-45
2022/10/27 01:20:44;;;;;;;;;5.75;4.00;;;;;17.89;67.64;101546.09;5054402;28;46160;-45
2022/10/27 01:23:42;;;;;;;;;5.00;3.00;;;;;17.83;68.34;101541.44;5055682;28;45434;-46
2022/10/27 01:26:34;;;;;;;;;3.75;2.25;;;;;17.77;68.03;101545.66;5057421;28;45372;-44
2022/10/27 01:29:26;;;;;;;;;6.00;4.25;;;;;17.76;68.38;101543.16;5058115;28;45207;-48
2022/10/27 01:32:07;;;;;;;;;7.75;3.25;;;;;17.72;68.45;101539.94;5057668;28;46428;-46
2022/10/27 01:34:40;;;;;;;;;4.00;2.75;;;;;17.68;68.62;101535.91;5057680;28;45442;-46
2022/10/27 01:37:51;;;;;;;;;4.00;2.75;;;;;17.68;68.63;101536.75;5057854;28;45342;-44
2022/10/27 01:40:36;;;;;;;;;7.00;3.00;;;;;17.68;68.46;101534.03;4995890;28;45630;-45
2022/10/27 01:43:03;;;;;;;;;3.75;3.75;;;;;17.71;68.56;101541.78;4995514;28;46305;-44
2022/10/27 01:45:32;;;;;;;;;5.25;5.25;;;;;17.70;68.45;101545.50;4995205;28;45421;-46
2022/10/27 01:47:58;;;;;;;;;3.00;3.00;;;;;17.62;68.53;101537.44;4995431;28;45676;-44
2022/10/27 01:50:34;;;;;;;;;3.00;3.00;;;;;17.63;68.34;101538.28;4995850;28;45464;-44
2022/10/27 01:52:59;;;;;;;;;5.25;4.00;;;;;17.54;68.86;101526.72;4995248;28;46502;-46
2022/10/27 01:56:01;;;;;;;;;4.00;4.00;;;;;17.55;68.82;101532.94;4995297;28;45390;-44
2022/10/27 01:58:27;;;;;;;;;2.50;2.50;;;;;17.54;69.00;101532.09;4995347;28;45494;-47
2022/10/27 02:01:13;;;;;;;;;6.00;4.00;;;;;17.48;68.76;101532.75;4995531;28;45462;-45
2022/10/27 02:03:51;;;;;;;;;4.50;2.00;;;;;17.40;69.34;101535.47;4995177;28;46124;-44
2022/10/27 02:06:28;;;;;;;;;2.75;2.75;;;;;17.38;69.35;101535.66;4995092;28;45331;-44
2022/10/27 02:09:03;;;;;;;;;7.75;4.00;;;;;17.38;69.04;101537.50;4995260;28;45266;-44
2022/10/27 02:11:32;;;;;;;;;4.75;3.50;;;;;17.37;69.41;101522.41;4995292;28;45432;-44
2022/10/27 02:13:59;;;;;;;;;3.25;2.25;;;;;17.37;69.54;101520.53;4995058;28;47091;-44
2022/10/27 02:16:30;;;;;;;;;5.25;4.00;;;;;17.29;69.24;101504.44;5012894;28;45368;-44
2022/10/27 02:19:07;;;;;;;;;3.50;3.00;;;;;17.36;69.10;101513.50;5056829;28;45473;-45
2022/10/27 02:21:35;;;;;;;;;6.00;5.00;;;;;17.36;69.24;101512.63;5057082;28;45611;-44
2022/10/27 02:24:02;;;;;;;;;3.25;3.25;;;;;17.32;69.46;101505.91;5056851;28;46259;-45
2022/10/27 02:26:40;;;;;;;;;5.50;5.00;;;;;17.33;69.41;101507.63;5056692;28;45379;-45
2022/10/27 02:29:17;;;;;;;;;4.25;4.00;;;;;17.32;69.31;101512.16;5056960;28;45345;-44
2022/10/27 02:31:49;;;;;;;;;4.00;3.00;;;;;17.28;69.57;101515.38;5057035;28;45296;-43
2022/10/27 02:34:17;;;;;;;;;4.00;3.25;;;;;17.31;69.49;101506.94;5056672;28;46268;-45
2022/10/27 02:36:42;;;;;;;;;3.25;3.00;;;;;17.29;69.28;101498.22;5056676;28;45296;-46
2022/10/27 02:39:08;;;;;;;;;7.50;3.00;;;;;17.35;69.16;101500.19;5056971;28;45361;-45
2022/10/27 02:41:33;;;;;;;;;4.75;4.00;;;;;17.26;69.14;101496.69;5056879;28;45342;-44
2022/10/27 02:43:58;;;;;;;;;4.25;3.75;;;;;17.26;69.48;101495.84;5056354;28;46136;-43
2022/10/27 02:46:24;;;;;;;;;3.50;3.50;;;;;17.32;68.88;101492.47;5056861;28;45422;-44
2022/10/27 02:48:49;;;;;;;;;4.00;4.00;;;;;17.28;69.17;101493.84;5056788;28;45244;-44
2022/10/27 02:51:14;;;;;;;;;3.50;3.00;;;;;17.28;69.37;101496.53;5055524;28;45531;-43
2022/10/27 02:53:40;;;;;;;;;4.00;4.00;;;;;17.30;69.15;101495.34;5056557;28;46089;-44
2022/10/27 02:56:06;;;;;;;;;3.50;3.25;;;;;17.36;68.78;101501.88;5056536;28;45396;-44
2022/10/27 02:58:31;;;;;;;;;4.00;4.00;;;;;17.27;68.79;101497.53;5056670;28;45394;-43
2022/10/27 03:00:57;;;;;;;;;5.00;3.00;;;;;17.29;69.05;101500.91;5056756;28;45405;-45
2022/10/27 03:03:23;;;;;;;;;4.25;4.00;;;;;17.26;68.97;101496.69;5056429;28;46144;-44
2022/10/27 03:05:48;;;;;;;;;4.00;3.00;;;;;17.29;68.83;101501.72;5056522;28;45322;-43
2022/10/27 03:08:14;;;;;;;;;3.00;3.00;;;;;17.21;68.70;101496.38;5056406;28;45602;-44
2022/10/27 03:10:39;;;;;;;;;5.50;4.00;;;;;17.14;68.87;101496.22;5056884;28;45208;-47
2022/10/27 03:13:04;;;;;;;;;3.50;2.00;;;;;17.16;69.17;101512.19;5056296;28;46024;-44
2022/10/27 03:15:30;;;;;;;;;1.00;0.75;;;;;17.12;69.12;101500.94;5056425;28;45204;-45
2022/10/27 03:17:55;;;;;;;;;4.75;4.00;;;;;17.03;68.96;101488.53;5056466;28;45289;-45
2022/10/27 03:20:21;;;;;;;;;4.00;3.00;;;;;17.05;69.39;101483.81;5056508;28;45432;-44
2022/10/27 03:22:46;;;;;;;;;5.50;3.00;;;;;17.04;69.21;101467.84;5056368;28;45689;-44
2022/10/27 03:25:13;;;;;;;;;3.00;3.00;;;;;17.09;68.94;101481.63;5056296;28;45479;-44
2022/10/27 03:27:39;;;;;;;;;3.00;3.00;;;;;17.03;69.28;101495.75;5056351;28;45374;-46
2022/10/27 03:30:06;;;;;;;;;3.00;2.25;;;;;17.01;69.50;101495.06;5056474;28;45442;-45
2022/10/27 03:32:32;;;;;;;;;3.25;3.25;;;;;17.02;69.26;101499.44;5055819;28;46679;-46
2022/10/27 03:34:57;;;;;;;;;3.75;3.75;;;;;17.01;69.19;101501.28;5056247;28;45331;-47
2022/10/27 03:37:22;;;;;;;;;5.00;2.25;;;;;17.04;69.32;101503.63;5056153;28;45194;-47
2022/10/27 03:39:47;;;;;;;;;3.00;3.00;;;;;17.02;69.33;101507.50;5056440;28;45200;-46
2022/10/27 03:42:13;;;;;;;;;3.00;3.00;;;;;16.95;69.52;101501.97;5055852;28;45411;-45
2022/10/27 03:44:38;;;;;;;;;5.67;3.67;;;;;16.96;69.14;101500.97;5055821;28;45455;-45
2022/10/27 03:47:03;;;;;;;;;4.00;4.00;;;;;16.92;69.42;101495.06;5058794;28;45353;-47
2022/10/27 03:49:29;;;;;;;;;4.00;4.00;;;;;16.92;69.48;101500.44;5059861;28;45326;-44
2022/10/27 03:51:54;;;;;;;;;5.00;3.00;;;;;16.91;69.70;101500.63;5059247;28;45268;-45
2022/10/27 03:54:20;;;;;;;;;4.33;4.00;;;;;16.86;69.28;101498.47;5059257;28;45419;-45
2022/10/27 03:56:45;;;;;;;;;3.67;3.67;;;;;16.84;69.59;101494.25;5059467;28;45672;-44
2022/10/27 03:59:10;;;;;;;;;0.00;0.00;;;;;16.81;69.73;101492.75;5059586;28;45204;-45
2022/10/27 04:01:36;;;;;;;;;3.67;3.67;;;;;16.73;69.81;101489.22;5058872;28;45936;-44
2022/10/27 04:04:03;;;;;;;;;4.33;4.33;;;;;16.74;69.74;101496.28;5059137;28;45309;-46
2022/10/27 04:06:29;;;;;;;;;9.00;6.00;;;;;16.77;69.69;101498.63;5059181;28;45435;-44
2022/10/27 04:08:54;;;;;;;;;4.00;2.67;;;;;16.74;69.80;101497.13;5059236;28;45301;-46
2022/10/27 04:11:19;;;;;;;;;6.67;4.67;;;;;16.73;69.95;101495.44;5058937;28;45327;-48
2022/10/27 04:13:46;;;;;;;;;6.00;5.00;;;;;16.72;70.09;101499.09;5058975;28;45430;-44
2022/10/27 04:16:11;;;;;;;;;4.00;3.67;;;;;16.70;69.77;101496.59;5059137;28;45301;-47
2022/10/27 04:18:36;;;;;;;;;3.00;3.00;;;;;16.74;69.74;101496.28;5059022;28;45442;-46
2022/10/27 04:21:03;;;;;;;;;4.33;4.00;;;;;16.72;69.71;101504.47;5058855;28;47109;-47
2022/10/27 04:23:28;;;;;;;;;5.33;3.33;;;;;16.66;69.88;101495.25;5058889;28;45316;-44
2022/10/27 04:25:54;;;;;;;;;5.33;4.67;;;;;16.67;69.63;101499.59;5058859;28;45385;-43
2022/10/27 04:28:20;;;;;;;;;4.00;3.00;;;;;16.68;69.87;101498.56;5059179;28;45344;-45
2022/10/27 04:30:45;;;;;;;;;8.00;4.00;;;;;16.65;69.60;101498.94;5058611;28;46274;-47
2022/10/27 04:33:10;;;;;;;;;6.67;3.33;;;;;16.66;69.53;101494.41;5058643;28;45355;-46
2022/10/27 04:35:36;;;;;;;;;8.67;4.67;;;;;16.66;69.81;101489.88;5058669;28;45438;-45
2022/10/27 04:38:01;;;;;;;;;10.33;5.00;;;;;16.67;69.58;101491.53;5058931;28;45199;-45
2022/10/27 04:40:26;;;;;;;;;10.33;7.33;;;;;16.64;69.69;101494.59;5058816;28;46009;-46
2022/10/27 04:42:52;;;;;;;;;7.00;4.00;;;;;16.59;69.82;101478.09;5058617;28;45382;-45
2022/10/27 04:45:18;;;;;;;;;4.33;4.33;;;;;16.57;70.10;101487.34;5058572;28;45239;-47
2022/10/27 04:47:44;;;;;;;;;4.00;3.00;;;;;16.51;70.00;101480.78;5058834;28;45391;-46
2022/10/27 04:50:09;;;;;;;;;5.00;3.67;;;;;16.49;70.05;101474.75;5058445;28;45325;-47
2022/10/27 04:52:35;;;;;;;;;3.00;3.00;;;;;16.46;70.34;101475.91;5058359;28;45466;-46
2022/10/27 04:55:01;;;;;;;;;5.00;5.00;;;;;16.44;70.33;101475.25;5058395;28;45854;-45
2022/10/27 04:57:26;;;;;;;;;8.00;4.67;;;;;16.44;70.10;101474.44;5057332;28;45455;-45
2022/10/27 04:59:51;;;;;;;;;5.00;4.00;;;;;16.44;70.19;101475.25;5058305;28;47365;-48
2022/10/27 05:02:16;;;;;;;;;7.00;5.00;;;;;16.43;70.16;101489.72;5058162;28;45314;-46
2022/10/27 05:04:42;;;;;;;;;4.67;4.67;;;;;16.39;70.53;101480.31;5058342;28;45634;-47
2022/10/27 05:07:07;;;;;;;;;4.00;4.00;;;;;16.39;70.13;101479.44;5058422;28;45449;-44
2022/10/27 05:09:33;;;;;;;;;5.00;4.00;;;;;16.40;70.29;101484.66;5058016;28;46128;-48
2022/10/27 05:11:58;;;;;;;;;10.67;8.00;;;;;16.42;70.17;101490.69;5058231;28;45353;-47
2022/10/27 05:14:23;;;;;;;;;5.67;5.67;;;;;16.43;70.17;101483.47;5058100;28;45223;-44
2022/10/27 05:16:49;;;;;;;;;10.33;6.00;;;;;16.39;70.14;101476.75;5058460;28;45491;-45
2022/10/27 05:19:14;;;;;;;;;10.00;9.67;;;;;16.48;70.02;101480.31;5057744;28;45474;-46
2022/10/27 05:21:39;;;;;;;;;6.00;4.67;;;;;16.50;69.93;101473.75;5057948;28;45261;-44
2022/10/27 05:24:05;;;;;;;;;8.67;6.67;;;;;16.45;70.14;101463.50;5058101;28;45216;-46
2022/10/27 05:26:30;;;;;;;;;9.00;7.00;;;;;16.44;70.06;101461.00;5058059;28;45430;-47
2022/10/27 05:28:55;;;;;;;;;8.33;5.67;;;;;16.43;70.17;101461.97;5058054;28;47226;-44
2022/10/27 05:31:21;;;;;;;;;10.00;7.67;;;;;16.44;69.92;101453.78;5057535;28;45236;-44
2022/10/27 05:33:46;;;;;;;;;9.33;7.00;;;;;16.46;69.99;101461.66;5057242;28;45305;-46
2022/10/27 05:36:11;;;;;;;;;10.33;8.00;;;;;16.40;69.85;101463.19;5057913;28;45227;-47
2022/10/27 05:38:38;;;;;;;;;7.00;7.00;;;;;16.42;69.75;101461.16;5057589;28;45489;-46
2022/10/27 05:41:04;;;;;;;;;7.33;6.00;;;;;16.40;69.96;101465.03;5057400;28;45439;-47
2022/10/27 05:43:29;;;;;;;;;8.00;6.00;;;;;16.39;70.24;101458.81;5057280;28;45514;-44
2022/10/27 05:45:54;;;;;;;;;6.00;5.00;;;;;16.36;70.03;101455.63;5057876;28;46021;-45
2022/10/27 05:48:20;;;;;;;;;6.67;6.67;;;;;16.38;70.27;101457.13;5057383;28;47089;-44
2022/10/27 05:50:45;;;;;;;;;6.00;5.00;;;;;16.37;70.25;101458.13;5057299;28;45390;-45
2022/10/27 05:53:10;;;;;;;;;4.67;4.67;;;;;16.34;70.11;101463.00;5057534;28;45335;-46
2022/10/27 05:55:36;;;;;;;;;9.00;7.67;;;;;16.34;70.18;101453.09;5057592;28;45307;-44
2022/10/27 05:58:05;;;;;;;;;5.00;4.25;;;;;16.33;70.11;101461.31;5057164;28;46962;-45
2022/10/27 06:00:36;;;;;;;;;5.00;5.00;;;;;16.36;70.30;101450.25;5057239;28;45289;-45
2022/10/27 06:03:03;;;;;;;;;6.00;4.33;;;;;16.38;70.42;101448.22;5057365;28;45364;-47
2022/10/27 06:05:30;;;;;;;;;7.33;5.33;;;;;16.39;70.01;101447.22;5057423;28;45209;-45
2022/10/27 06:07:57;;;;;;;;;7.00;6.00;;;;;16.37;70.09;101436.66;5057157;28;46311;-45
2022/10/27 06:10:22;;;;;;;;;5.00;5.00;;;;;16.43;70.15;101437.81;5056834;28;45377;-45
2022/10/27 06:12:48;;;;;;;;;10.00;7.00;;;;;16.44;70.04;101434.97;5057481;28;45561;-44
2022/10/27 06:15:13;;;;;;;;;10.00;7.00;;;;;16.44;70.42;101442.19;5057270;28;45338;-43
2022/10/27 06:17:39;;;;;;;;;6.67;4.67;;;;;16.41;70.32;101438.00;5057108;28;46253;-45
2022/10/27 06:20:04;;;;;;;;;5.67;5.67;;;;;16.45;70.11;101441.19;5056898;28;45387;-45
2022/10/27 06:22:30;;;;;;;;;6.00;4.33;;;;;16.48;70.18;101448.91;5057086;28;45343;-44
2022/10/27 06:24:55;;;;;;;;;10.67;5.67;;;;;16.52;70.00;101442.19;5057356;28;45401;-43
2022/10/27 06:27:20;;;;;;;;;3.00;3.00;;;;;16.52;69.64;101442.19;5056852;28;45925;-48
2022/10/27 06:29:46;;;;;;;;;4.00;4.00;;;;;16.49;69.89;101431.78;5057031;28;45363;-45
2022/10/27 06:32:11;;;;;;;;;10.33;3.00;;;;;16.53;69.83;101429.63;5056943;28;45402;-42
2022/10/27 06:34:36;;;;;;;;;7.50;5.25;;;;;16.58;70.00;101424.56;5057066;28;45549;-45
2022/10/27 06:37:02;;;;;;;;;3.50;3.50;;;;;16.59;69.80;101419.00;5056987;28;46148;-45
2022/10/27 06:39:29;;;;;;;;;6.00;5.00;;;;;16.60;69.82;101417.16;5056921;28;45874;-44
2022/10/27 06:41:55;;;;;;;;;7.00;5.67;;;;;16.52;69.74;101406.41;5056913;28;45374;-44
2022/10/27 06:44:20;;;;;;;;;4.33;4.33;;;;;16.63;69.70;101420.34;5056947;28;45583;-44
2022/10/27 06:46:46;;;;;;;;;7.00;4.33;;;;;16.67;69.66;101418.16;5056824;28;46144;-44
2022/10/27 06:49:11;;;;;;;;;6.33;5.00;;;;;16.68;69.59;101417.97;5056531;28;45433;-47
2022/10/27 06:51:36;;;;;;;;;3.00;3.00;;;;;16.68;69.42;101417.97;5056843;28;45326;-44
2022/10/27 06:54:02;;;;;;;;;6.00;4.67;;;;;16.71;69.43;101423.03;5057054;28;45167;-45
2022/10/27 06:56:27;;;;;;;;;5.00;5.00;;;;;16.64;69.21;101415.81;5056707;28;45294;-46
2022/10/27 06:58:52;;;;;;;;;4.25;4.25;;;;;16.66;69.29;101420.03;5056779;28;45429;-45
2022/10/27 07:01:18;;;;;;;;;9.00;5.00;;;;;16.68;69.68;101422.53;5056780;28;45410;-46
2022/10/27 07:03:43;;;;;;;;;5.00;4.00;;;;;16.70;69.20;101420.53;5056680;28;45453;-47
2022/10/27 07:06:08;;;;;;;;;4.33;4.00;;;;;16.71;69.36;101420.34;5056515;28;46034;-43
2022/10/27 07:08:34;;;;;;;;;6.67;5.00;;;;;16.69;69.55;101427.75;5056460;28;45322;-43
2022/10/27 07:10:59;;;;;;;;;7.50;5.75;;;;;16.70;69.15;101434.78;5056296;28;45405;-47
2022/10/27 07:13:24;;;;;;;;;4.75;4.00;;;;;16.73;69.29;101448.91;5056646;28;45397;-46
2022/10/27 07:15:50;;;;;;;;;7.00;5.67;;;;;16.74;69.16;101447.94;5056287;28;45349;-46
2022/10/27 07:18:15;;;;;;;;;7.33;5.00;;;;;16.80;69.14;101463.34;5056492;28;45446;-45
2022/10/27 07:20:44;;;;;;;;;13.00;9.00;;;;;16.82;69.36;101464.88;5057200;28;45236;-47
2022/10/27 07:23:11;;;;;;;;;6.00;5.00;;;;;16.84;69.17;101449.41;5060197;28;45392;-44
2022/10/27 07:25:37;;;;;;;;;12.67;8.67;;;;;16.88;69.04;101461.50;5059727;28;46099;-47
2022/10/27 07:28:05;;;;;;;;;11.00;7.67;;;;;16.86;68.86;101460.00;5059547;27;45228;-45
2022/10/27 07:30:36;;;;;;;;;10.33;9.00;;;;;16.71;69.05;101452.56;5059827;28;45471;-46
2022/10/27 07:33:03;;;;;;;;;7.33;6.00;;;;;16.84;69.16;101470.06;5060255;28;45315;-46
2022/10/27 07:35:28;;;;;;;;;13.33;10.00;;;;;16.88;69.07;101487.53;5059537;28;45378;-47
2022/10/27 07:37:53;;;;;;;;;9.67;7.00;;;;;16.92;68.90;101494.25;5058327;28;45575;-44
2022/10/27 07:40:21;;;;;;;;;8.33;8.33;;;;;16.95;68.60;101507.34;5059271;28;45768;-46
2022/10/27 07:42:51;;;;;;;;;7.75;5.50;;;;;17.03;68.52;101507.34;5059502;28;45549;-46
2022/10/27 07:45:19;;;;;;;;;12.00;8.00;;;;;17.04;68.64;101500.13;5059152;28;45872;-43
2022/10/27 07:47:46;;;;;;;;;9.67;7.00;;;;;16.95;68.31;101481.31;5058959;28;45489;-43
2022/10/27 07:50:12;;;;;;;;;6.75;5.25;;;;;16.94;68.53;101489.56;5059183;28;45366;-45
2022/10/27 07:52:46;;;;;;;;;6.00;6.00;;;;;17.01;68.28;101500.44;5059316;28;45456;-46
2022/10/27 07:55:13;;;;;;;;;8.50;6.25;;;;;17.07;68.53;101508.69;5058701;28;46472;-44
2022/10/27 07:57:39;;;;;;;;;7.50;5.00;;;;;17.11;67.96;101515.41;5058870;28;45423;-43
2022/10/27 08:00:07;;;;;;;;;6.67;5.33;;;;;17.11;68.36;101491.19;5059124;28;45455;-46
2022/10/27 08:02:32;;;;;;;;;9.00;5.00;;;;;17.11;68.32;101480.44;5059210;28;45438;-44
2022/10/27 08:04:57;;;;;;;;;4.67;4.67;;;;;17.06;68.14;101495.38;5058737;28;46138;-45
2022/10/27 08:07:23;;;;;;;;;4.33;4.33;;;;;16.90;68.43;101480.16;5059269;28;45178;-44
2022/10/27 08:09:48;;;;;;;;;5.00;5.00;;;;;16.99;68.54;101484.50;5059065;28;45287;-46
2022/10/27 08:12:14;;;;;;;;;6.67;5.00;;;;;16.94;68.94;101494.94;5059056;28;45486;-47
2022/10/27 08:14:39;;;;;;;;;6.67;6.67;;;;;16.99;68.69;101483.66;5058781;28;46168;-44
2022/10/27 08:17:04;;;;;;;;;7.00;5.00;;;;;17.00;68.66;101491.53;5058798;28;45332;-45
2022/10/27 08:19:30;;;;;;;;;6.00;4.33;;;;;17.00;68.75;101496.91;5058702;28;45323;-44
2022/10/27 08:21:55;;;;;;;;;8.00;6.00;;;;;16.99;68.70;101503.31;5059009;28;45402;-42
2022/10/27 08:24:20;;;;;;;;;7.00;5.00;;;;;16.98;68.92;101504.34;5058713;28;46286;-44
2022/10/27 08:26:45;;;;;;;;;5.75;4.00;;;;;16.95;68.73;101497.44;5058567;28;45523;-46
2022/10/27 08:29:11;;;;;;;;;5.33;5.33;;;;;17.06;68.97;101506.97;5058799;28;45375;-46
2022/10/27 08:31:36;;;;;;;;;9.00;5.33;;;;;17.06;68.64;101506.13;5058565;28;45444;-44
2022/10/27 08:34:01;;;;;;;;;10.33;7.00;;;;;17.06;68.91;101500.78;5058173;28;45362;-46
2022/10/27 08:36:27;;;;;;;;;9.67;9.00;;;;;17.05;69.05;101505.31;5058612;28;45394;-45
2022/10/27 08:38:52;;;;;;;;;9.67;9.67;;;;;17.08;69.13;101504.13;5058630;28;45409;-43
2022/10/27 08:41:33;;;;;;;;;11.33;7.00;;;;;17.12;68.76;101513.53;5058874;28;45318;-42
2022/10/27 08:44:09;;;;;;;;;8.33;7.00;;;;;17.14;68.70;101511.50;5058341;28;45286;-43
2022/10/27 08:46:37;;;;;;;;;12.33;7.33;;;;;17.10;69.25;101510.16;5058241;28;45321;-44
2022/10/27 08:49:10;;;;;;;;;7.00;6.00;;;;;17.11;69.11;101515.41;5058601;28;45450;-43
2022/10/27 08:51:37;;;;;;;;;8.00;6.00;;;;;17.14;69.21;101508.81;5058503;28;45566;-44
2022/10/27 08:54:04;;;;;;;;;10.33;10.33;;;;;17.16;69.06;101512.19;5058006;28;46527;-44
2022/10/27 08:56:38;;;;;;;;;13.33;8.33;;;;;17.10;69.17;101505.63;5058124;28;45236;-43
2022/10/27 08:59:04;;;;;;;;;13.00;7.00;;;;;17.25;69.33;101521.06;5058195;28;45381;-42
2022/10/27 09:01:43;;;;;;;;;11.67;8.67;;;;;17.28;68.92;101510.00;5058280;28;45480;-44
2022/10/27 09:04:11;;;;;;;;;12.00;9.67;;;;;17.32;69.01;101506.78;5057430;28;47103;-45
2022/10/27 09:06:50;;;;;;;;;14.67;8.33;;;;;17.38;68.89;101521.38;5057807;28;45461;-44
2022/10/27 09:09:43;;;;;;;;;7.00;7.00;;;;;17.44;68.80;101518.84;5058139;28;45410;-45
2022/10/27 09:12:45;;;;;;;;;10.67;9.00;;;;;17.49;68.87;101522.84;5058256;28;45475;-44
2022/10/27 09:15:27;;;;;;;;;10.67;8.33;;;;;17.62;68.58;101524.00;5057675;28;46235;-43
2022/10/27 09:18:01;;;;;;;;;17.00;12.00;;;;;17.77;68.13;101524.13;5057771;28;45321;-45
2022/10/27 09:20:33;;;;;;;;;8.33;8.33;;;;;17.87;68.02;101529.31;5057981;28;45463;-45
2022/10/27 09:23:03;;;;;;;;;12.75;10.25;;;;;17.95;67.89;101532.81;5057672;28;45477;-44
2022/10/27 09:25:29;;;;;;;;;16.00;13.33;;;;;18.01;67.66;101527.72;5057399;28;45438;-43
2022/10/27 09:27:58;;;;;;;;;11.33;11.00;;;;;18.05;67.55;101515.59;5057677;28;45367;-46
2022/10/27 09:30:24;;;;;;;;;12.67;7.33;;;;;18.10;67.25;101529.34;5057504;28;45569;-45
2022/10/27 09:32:52;;;;;;;;;9.67;8.67;;;;;18.10;67.52;101532.88;5073315;27;45440;-43
2022/10/27 09:35:23;;;;;;;;;15.00;10.33;;;;;18.09;67.58;101547.38;5057483;28;46451;-45
2022/10/27 09:37:49;;;;;;;;;10.33;9.00;;;;;18.11;67.37;101547.19;5057596;28;45315;-44
2022/10/27 09:40:20;;;;;;;;;11.50;9.25;;;;;18.26;67.16;101533.81;5057356;28;45816;-45
2022/10/27 09:42:48;;;;;;;;;8.25;8.25;;;;;18.39;67.03;101539.44;5057358;28;45315;-42
2022/10/27 09:45:24;;;;;;;;;13.00;7.75;;;;;18.52;66.59;101534.28;5056553;28;46386;-43
2022/10/27 09:48:19;;;;;;;;;10.25;8.50;;;;;18.73;66.41;101543.59;5057068;28;45739;-42
2022/10/27 09:50:56;;;;;;;;;8.75;8.00;;;;;18.90;65.64;101539.75;4975376;28;45476;-43
2022/10/27 09:53:41;;;;;;;;;9.75;9.50;;;;;19.22;65.45;101532.38;4975714;28;45299;-42
2022/10/27 09:56:11;;;;;;;;;10.50;9.50;;;;;19.38;64.37;101519.56;4975573;28;45302;-42
2022/10/27 09:58:56;;;;;;;;;9.50;7.75;;;;;19.62;63.77;101507.66;4975723;28;45381;-44
2022/10/27 10:01:22;;;;;;;;;8.50;7.75;;;;;19.84;63.23;101508.56;4975428;28;45394;-43
2022/10/27 10:03:59;;;;;;;;;7.25;6.75;;;;;19.97;62.98;101512.44;4975555;28;45471;-45
2022/10/27 10:06:32;;;;;;;;;10.00;8.75;;;;;20.04;61.90;101511.50;4975106;28;46128;-43
2022/10/27 10:09:22;;;;;;;;;12.00;8.00;;;;;20.05;62.20;101509.63;4975304;28;45508;-46
2022/10/27 10:11:48;;;;;;;;;14.25;10.00;;;;;20.00;62.60;101523.72;4975444;28;45302;-45
2022/10/27 10:14:23;;;;;;;;;12.75;8.75;;;;;19.92;62.67;101507.63;4975136;28;45531;-43
2022/10/27 10:16:51;;;;;;;;;9.50;8.25;;;;;19.90;62.37;101510.50;4975327;28;46113;-43
2022/10/27 10:19:21;;;;;;;;;9.75;9.00;;;;;19.92;62.62;101521.13;4975355;28;45283;-43
2022/10/27 10:21:59;;;;;;;;;8.75;8.00;;;;;19.83;62.89;101516.84;4975015;28;45294;-46
2022/10/27 10:24:32;;;;;;;;;10.25;7.50;;;;;19.79;63.06;101518.25;4975700;28;45554;-44
2022/10/27 10:27:00;;;;;;;;;10.00;9.50;;;;;19.75;63.44;101522.34;5009984;28;47058;-44
2022/10/27 10:29:32;;;;;;;;;13.75;8.00;;;;;19.81;63.50;101525.16;5057126;28;45345;-44
2022/10/27 10:32:21;;;;;;;;;14.00;11.00;;;;;19.86;63.15;101533.53;5057079;28;45313;-43
2022/10/27 10:34:47;;;;;;;;;15.00;11.00;;;;;20.01;62.98;101530.78;5057363;28;45383;-43
2022/10/27 10:37:39;;;;;;;;;14.50;9.75;;;;;20.10;63.01;101537.75;5056773;28;45418;-42
2022/10/27 10:40:25;;;;;;;;;13.00;10.00;;;;;20.18;62.43;101528.69;5056459;28;45919;-43
2022/10/27 10:43:14;;;;;;;;;12.00;11.00;;;;;20.29;62.47;101530.06;5056902;28;45516;-42
2022/10/27 10:45:40;;;;;;;;;15.00;12.25;;;;;20.32;62.34;101526.97;4975049;28;45414;-44
2022/10/27 10:48:22;;;;;;;;;12.75;7.25;;;;;20.31;62.00;101531.56;4958643;28;46254;-46
2022/10/27 10:50:51;;;;;;;;;20.00;10.25;;;;;20.33;61.72;101528.66;4974835;28;45556;-47
2022/10/27 10:53:25;;;;;;;;;11.25;10.75;;;;;20.36;62.31;101523.72;4975277;28;45309;-46
2022/10/27 10:55:53;;;;;;;;;10.00;7.50;;;;;20.39;61.88;101525.16;4976151;28;45395;-43
2022/10/27 10:58:21;;;;;;;;;10.50;8.25;;;;;20.39;61.48;101517.94;4978409;28;45360;-46
2022/10/27 11:00:59;;;;;;;;;19.00;14.25;;;;;20.36;61.63;101509.38;4978390;28;45456;-44
2022/10/27 11:03:30;;;;;;;;;10.75;8.75;;;;;20.36;62.42;101512.06;4978402;28;45488;-43
2022/10/27 11:06:02;;;;;;;;;17.50;16.25;;;;;20.34;61.78;101506.00;4978571;28;45386;-43
2022/10/27 11:08:41;;;;;;;;;11.25;10.00;;;;;20.38;61.88;101515.41;4978248;28;45657;-44
2022/10/27 11:11:15;;;;;;;;;8.20;7.20;;;;;20.40;61.35;101518.75;4977985;28;45481;-42
2022/10/27 11:14:04;;;;;;;;;10.50;8.75;;;;;20.41;61.88;101523.97;4978438;28;45446;-42
2022/10/27 11:16:32;;;;;;;;;14.50;9.50;;;;;20.51;61.27;101522.81;4978500;28;45500;-44
2022/10/27 11:19:17;;;;;;;;;10.50;9.00;;;;;20.79;60.76;101498.56;4978417;28;45437;-45
2022/10/27 11:22:01;;;;;;;;;14.25;11.75;;;;;21.05;60.38;101495.22;4986959;28;45535;-44
2022/10/27 11:24:52;;;;;;;;;12.75;10.00;;;;;21.28;59.46;101493.09;5059964;28;45346;-43
2022/10/27 11:27:59;;;;;;;;;8.50;7.00;;;;;21.82;57.91;101488.78;5060203;28;45446;-43
2022/10/27 11:30:26;;;;;;;;;9.25;7.75;;;;;22.49;55.55;101496.06;5059735;28;45496;-48
2022/10/27 11:32:52;;;;;;;;;10.60;8.20;;;;;22.96;54.96;101487.94;5059495;28;45493;-42